sensor_id;sensor_type;location;lat;lon;timestamp;pressure;altitude;pressure_sealevel;temperature;humidity
29909;BME280;36247;51.952;6.146;2023-06-14T00:02:15;101413.31;;;18.09;63.65
29909;BME280;36247;51.952;6.146;2023-06-14T00:04:41;101406.88;;;18.28;65.65
29909;BME280;36247;51.952;6.146;2023-06-14T00:07:07;101407.88;;;18.17;62.42
29909;BME280;36247;51.952;6.146;2023-06-14T00:09:41;101402.31;;;18.41;61.37
29909;BME280;36247;51.952;6.146;2023-06-14T00:12:07;101405.31;;;18.03;63.04
29909;BME280;36247;51.952;6.146;2023-06-14T00:14:35;101403.41;;;18.19;63.65
29909;BME280;36247;51.952;6.146;2023-06-14T00:17:01;101405.25;;;18.09;63.64
29909;BME280;36247;51.952;6.146;2023-06-14T00:19:27;101406.16;;;18.06;62.66
29909;BME280;36247;51.952;6.146;2023-06-14T00:21:54;101410.59;;;18.13;65.21
29909;BME280;36247;51.952;6.146;2023-06-14T00:24:20;101413.47;;;17.84;65.10
29909;BME280;36247;51.952;6.146;2023-06-14T00:26:47;101415.13;;;18.08;64.63
29909;BME280;36247;51.952;6.146;2023-06-14T00:29:12;101413.16;;;18.29;65.15
29909;BME280;36247;51.952;6.146;2023-06-14T00:31:41;101428.72;;;17.74;66.85
29909;BME280;36247;51.952;6.146;2023-06-14T00:34:06;101422.28;;;18.03;64.54
29909;BME280;36247;51.952;6.146;2023-06-14T00:36:32;101427.72;;;17.95;65.19
29909;BME280;36247;51.952;6.146;2023-06-14T00:38:57;101430.50;;;17.75;66.37
29909;BME280;36247;51.952;6.146;2023-06-14T00:41:23;101429.59;;;17.73;67.46
29909;BME280;36247;51.952;6.146;2023-06-14T00:43:48;101420.59;;;17.91;67.22
29909;BME280;36247;51.952;6.146;2023-06-14T00:46:14;101424.19;;;17.90;70.71
29909;BME280;36247;51.952;6.146;2023-06-14T00:48:42;101423.31;;;17.80;75.23
29909;BME280;36247;51.952;6.146;2023-06-14T00:51:07;101431.56;;;17.50;73.89
29909;BME280;36247;51.952;6.146;2023-06-14T00:53:37;101426.91;;;17.76;74.63
29909;BME280;36247;51.952;6.146;2023-06-14T00:56:06;101435.13;;;17.47;72.26
29909;BME280;36247;51.952;6.146;2023-06-14T01:00:58;101435.19;;;17.39;75.68
29909;BME280;36247;51.952;6.146;2023-06-14T01:03:23;101430.59;;;17.63;81.40
29909;BME280;36247;51.952;6.146;2023-06-14T01:06:01;101436.19;;;17.17;77.52
29909;BME280;36247;51.952;6.146;2023-06-14T01:08:47;101427.97;;;17.51;79.76
29909;BME280;36247;51.952;6.146;2023-06-14T01:11:23;101426.31;;;17.26;76.04
29909;BME280;36247;51.952;6.146;2023-06-14T01:13:53;101422.75;;;17.27;84.02
29909;BME280;36247;51.952;6.146;2023-06-14T01:16:24;101436.03;;;17.43;85.15
29909;BME280;36247;51.952;6.146;2023-06-14T01:18:52;101427.19;;;17.27;82.76
29909;BME280;36247;51.952;6.146;2023-06-14T01:21:24;101427.16;;;17.36;85.16
29909;BME280;36247;51.952;6.146;2023-06-14T01:23:51;101431.75;;;16.96;84.59
29909;BME280;36247;51.952;6.146;2023-06-14T01:26:24;101428.22;;;16.95;84.96
29909;BME280;36247;51.952;6.146;2023-06-14T01:28:51;101428.19;;;16.97;86.59
29909;BME280;36247;51.952;6.146;2023-06-14T01:31:20;101423.75;;;17.02;86.89
29909;BME280;36247;51.952;6.146;2023-06-14T01:33:49;101433.59;;;16.89;89.78
29909;BME280;36247;51.952;6.146;2023-06-14T01:36:18;101429.09;;;16.94;87.59
29909;BME280;36247;51.952;6.146;2023-06-14T01:38:44;101418.38;;;17.03;89.67
29909;BME280;36247;51.952;6.146;2023-06-14T01:41:11;101427.34;;;16.90;86.97
29909;BME280;36247;51.952;6.146;2023-06-14T01:43:37;101434.47;;;16.82;92.70
29909;BME280;36247;51.952;6.146;2023-06-14T01:46:10;101436.31;;;16.44;92.29
29909;BME280;36247;51.952;6.146;2023-06-14T01:48:37;101434.50;;;16.69;91.17
29909;BME280;36247;51.952;6.146;2023-06-14T01:51:02;101430.91;;;16.67;89.04
29909;BME280;36247;51.952;6.146;2023-06-14T01:53:28;101422.91;;;16.75;96.34
29909;BME280;36247;51.952;6.146;2023-06-14T01:55:54;101429.16;;;16.57;94.06
29909;BME280;36247;51.952;6.146;2023-06-14T01:58:20;101427.34;;;16.68;92.74
29909;BME280;36247;51.952;6.146;2023-06-14T02:00:46;101423.78;;;16.71;94.77
29909;BME280;36247;51.952;6.146;2023-06-14T02:03:12;101436.28;;;16.58;95.50
29909;BME280;36247;51.952;6.146;2023-06-14T02:05:41;101421.19;;;16.21;96.04
29909;BME280;36247;51.952;6.146;2023-06-14T02:08:07;101425.63;;;16.36;95.72
29909;BME280;36247;51.952;6.146;2023-06-14T02:10:33;101421.16;;;16.40;100.00
29909;BME280;36247;51.952;6.146;2023-06-14T02:12:58;101432.75;;;16.50;100.00
29909;BME280;36247;51.952;6.146;2023-06-14T02:15:24;101430.06;;;16.27;99.48
29909;BME280;36247;51.952;6.146;2023-06-14T02:17:49;101425.59;;;16.22;100.00
29909;BME280;36247;51.952;6.146;2023-06-14T02:20:16;101421.13;;;16.48;98.94
29909;BME280;36247;51.952;6.146;2023-06-14T02:22:42;101413.13;;;16.60;97.83
29909;BME280;36247;51.952;6.146;2023-06-14T02:25:10;101427.38;;;16.34;100.00
29909;BME280;36247;51.952;6.146;2023-06-14T02:27:36;101420.25;;;16.19;99.04
29909;BME280;36247;51.952;6.146;2023-06-14T02:30:03;101425.63;;;16.30;99.30
29909;BME280;36247;51.952;6.146;2023-06-14T02:32:31;101422.94;;;16.16;100.00
29909;BME280;36247;51.952;6.146;2023-06-14T02:34:59;101429.16;;;16.42;100.00
29909;BME280;36247;51.952;6.146;2023-06-14T02:37:24;101422.94;;;16.06;100.00
29909;BME280;36247;51.952;6.146;2023-06-14T02:39:52;101424.75;;;15.97;100.00
29909;BME280;36247;51.952;6.146;2023-06-14T02:42:17;101423.84;;;16.17;100.00
29909;BME280;36247;51.952;6.146;2023-06-14T02:44:43;101420.28;;;15.87;100.00
29909;BME280;36247;51.952;6.146;2023-06-14T02:47:11;101422.06;;;16.02;100.00
29909;BME280;36247;51.952;6.146;2023-06-14T02:49:37;101434.53;;;16.38;100.00
29909;BME280;36247;51.952;6.146;2023-06-14T02:52:07;101430.09;;;16.02;100.00
29909;BME280;36247;51.952;6.146;2023-06-14T02:54:36;101428.28;;;15.95;100.00
29909;BME280;36247;51.952;6.146;2023-06-14T02:57:01;101430.97;;;16.06;100.00
29909;BME280;36247;51.952;6.146;2023-06-14T02:59:27;101438.94;;;15.78;100.00
29909;BME280;36247;51.952;6.146;2023-06-14T03:01:54;101446.06;;;15.82;100.00
29909;BME280;36247;51.952;6.146;2023-06-14T03:04:20;101445.19;;;15.83;100.00
29909;BME280;36247;51.952;6.146;2023-06-14T03:06:46;101446.09;;;15.93;100.00
29909;BME280;36247;51.952;6.146;2023-06-14T03:09:16;101442.53;;;15.95;100.00
29909;BME280;36247;51.952;6.146;2023-06-14T03:11:42;101452.25;;;15.72;100.00
29909;BME280;36247;51.952;6.146;2023-06-14T03:14:09;101462.09;;;15.88;100.00
29909;BME280;36247;51.952;6.146;2023-06-14T03:16:37;101449.66;;;15.90;100.00
29909;BME280;36247;51.952;6.146;2023-06-14T03:19:03;101455.91;;;15.97;100.00
29909;BME280;36247;51.952;6.146;2023-06-14T03:21:31;101457.56;;;15.67;100.00
29909;BME280;36247;51.952;6.146;2023-06-14T03:23:59;101462.06;;;15.76;100.00
29909;BME280;36247;51.952;6.146;2023-06-14T03:26:25;101463.00;;;15.81;100.00
29909;BME280;36247;51.952;6.146;2023-06-14T03:28:52;101463.78;;;15.63;100.00
29909;BME280;36247;51.952;6.146;2023-06-14T03:31:20;101457.56;;;15.67;100.00
29909;BME280;36247;51.952;6.146;2023-06-14T03:33:45;101463.84;;;15.71;100.00
29909;BME280;36247;51.952;6.146;2023-06-14T03:36:12;101467.34;;;15.52;100.00
29909;BME280;36247;51.952;6.146;2023-06-14T03:38:41;101465.59;;;15.70;100.00
29909;BME280;36247;51.952;6.146;2023-06-14T03:41:07;101472.72;;;15.57;100.00
29909;BME280;36247;51.952;6.146;2023-06-14T03:43:37;101471.81;;;15.63;100.00
29909;BME280;36247;51.952;6.146;2023-06-14T03:46:03;101487.06;;;15.92;100.00
29909;BME280;36247;51.952;6.146;2023-06-14T03:48:30;101479.78;;;15.49;100.00
29909;BME280;36247;51.952;6.146;2023-06-14T03:50:56;101475.34;;;15.51;100.00
29909;BME280;36247;51.952;6.146;2023-06-14T03:53:22;101478.06;;;15.65;100.00
29909;BME280;36247;51.952;6.146;2023-06-14T03:55:53;101482.59;;;15.91;100.00
29909;BME280;36247;51.952;6.146;2023-06-14T03:58:20;101479.91;;;15.80;100.00
29909;BME280;36247;51.952;6.146;2023-06-14T04:00:49;101489.75;;;15.93;100.00
29909;BME280;36247;51.952;6.146;2023-06-14T04:03:15;101487.97;;;16.01;100.00
29909;BME280;36247;51.952;6.146;2023-06-14T04:05:41;101495.97;;;15.95;100.00
29909;BME280;36247;51.952;6.146;2023-06-14T04:08:11;101488.81;;;15.85;100.00
29909;BME280;36247;51.952;6.146;2023-06-14T04:10:41;101495.13;;;16.22;100.00
29909;BME280;36247;51.952;6.146;2023-06-14T04:13:07;101497.78;;;16.24;100.00
29909;BME280;36247;51.952;6.146;2023-06-14T04:15:33;101500.44;;;16.04;100.00
29909;BME280;36247;51.952;6.146;2023-06-14T04:18:00;101504.94;;;16.13;100.00
29909;BME280;36247;51.952;6.146;2023-06-14T04:20:25;101512.03;;;16.11;100.00
29909;BME280;36247;51.952;6.146;2023-06-14T04:22:52;101504.94;;;16.34;100.00
29909;BME280;36247;51.952;6.146;2023-06-14T04:25:22;101503.16;;;16.38;100.00
29909;BME280;36247;51.952;6.146;2023-06-14T04:27:48;101514.75;;;16.37;100.00
29909;BME280;36247;51.952;6.146;2023-06-14T04:30:15;101513.81;;;16.16;100.00
29909;BME280;36247;51.952;6.146;2023-06-14T04:32:51;101511.19;;;16.55;100.00
29909;BME280;36247;51.952;6.146;2023-06-14T04:35:19;101514.78;;;16.57;100.00
29909;BME280;36247;51.952;6.146;2023-06-14T04:37:46;101518.34;;;16.44;100.00
29909;BME280;36247;51.952;6.146;2023-06-14T04:40:12;101520.09;;;16.66;100.00
29909;BME280;36247;51.952;6.146;2023-06-14T04:42:41;101520.13;;;16.63;100.00
29909;BME280;36247;51.952;6.146;2023-06-14T04:45:11;101523.66;;;16.71;100.00
29909;BME280;36247;51.952;6.146;2023-06-14T04:47:40;101521.88;;;16.81;100.00
29909;BME280;36247;51.952;6.146;2023-06-14T04:50:11;101531.69;;;16.78;100.00
29909;BME280;36247;51.952;6.146;2023-06-14T04:52:41;101535.25;;;16.83;100.00
29909;BME280;36247;51.952;6.146;2023-06-14T04:55:11;101537.91;;;17.10;100.00
29909;BME280;36247;51.952;6.146;2023-06-14T04:57:36;101538.81;;;16.94;100.00
29909;BME280;36247;51.952;6.146;2023-06-14T05:00:07;101528.13;;;16.96;100.00
29909;BME280;36247;51.952;6.146;2023-06-14T05:02:41;101537.94;;;16.92;100.00
29909;BME280;36247;51.952;6.146;2023-06-14T05:05:07;101531.66;;;17.19;100.00
29909;BME280;36247;51.952;6.146;2023-06-14T05:07:32;101531.66;;;17.13;100.00
29909;BME280;36247;51.952;6.146;2023-06-14T05:09:59;101531.66;;;17.16;100.00
29909;BME280;36247;51.952;6.146;2023-06-14T05:12:25;101539.69;;;17.18;100.00
29909;BME280;36247;51.952;6.146;2023-06-14T05:14:51;101539.66;;;17.35;100.00
29909;BME280;36247;51.952;6.146;2023-06-14T05:17:19;101546.78;;;17.30;100.00
29909;BME280;36247;51.952;6.146;2023-06-14T05:19:45;101532.50;;;17.32;100.00
29909;BME280;36247;51.952;6.146;2023-06-14T05:22:11;101540.53;;;17.34;100.00
29909;BME280;36247;51.952;6.146;2023-06-14T05:24:37;101540.50;;;17.48;100.00
29909;BME280;36247;51.952;6.146;2023-06-14T05:27:06;101540.41;;;17.61;100.00
29909;BME280;36247;51.952;6.146;2023-06-14T05:29:32;101546.72;;;17.59;100.00
29909;BME280;36247;51.952;6.146;2023-06-14T05:31:57;101536.81;;;17.73;100.00
29909;BME280;36247;51.952;6.146;2023-06-14T05:34:23;101532.28;;;17.88;100.00
29909;BME280;36247;51.952;6.146;2023-06-14T05:36:49;101540.28;;;18.00;100.00
29909;BME280;36247;51.952;6.146;2023-06-14T05:39:14;101545.66;;;17.97;100.00
29909;BME280;36247;51.952;6.146;2023-06-14T05:41:41;101546.41;;;18.22;100.00
29909;BME280;36247;51.952;6.146;2023-06-14T05:44:06;101547.50;;;17.90;100.00
29909;BME280;36247;51.952;6.146;2023-06-14T05:46:33;101551.69;;;18.30;95.41
29909;BME280;36247;51.952;6.146;2023-06-14T05:48:59;101551.59;;;18.48;98.97
29909;BME280;36247;51.952;6.146;2023-06-14T05:51:24;101544.56;;;18.32;94.75
29909;BME280;36247;51.952;6.146;2023-06-14T05:53:53;101548.97;;;18.35;99.45
29909;BME280;36247;51.952;6.146;2023-06-14T05:56:18;101549.91;;;18.35;100.00
29909;BME280;36247;51.952;6.146;2023-06-14T05:58:44;101551.63;;;18.45;99.60
29909;BME280;36247;51.952;6.146;2023-06-14T06:01:12;101558.38;;;18.93;96.25
29909;BME280;36247;51.952;6.146;2023-06-14T06:03:41;101556.78;;;18.67;95.54
29909;BME280;36247;51.952;6.146;2023-06-14T06:06:12;101570.31;;;18.55;97.74
29909;BME280;36247;51.952;6.146;2023-06-14T06:08:37;101568.22;;;18.95;93.71
29909;BME280;36247;51.952;6.146;2023-06-14T06:11:07;101573.41;;;19.15;93.58
29909;BME280;36247;51.952;6.146;2023-06-14T06:13:32;101572.44;;;19.19;92.37
29909;BME280;36247;51.952;6.146;2023-06-14T06:15:58;101578.72;;;19.22;89.28
29909;BME280;36247;51.952;6.146;2023-06-14T06:18:23;101575.03;;;19.32;88.46
29909;BME280;36247;51.952;6.146;2023-06-14T06:20:49;101579.50;;;19.30;87.92
29909;BME280;36247;51.952;6.146;2023-06-14T06:23:15;101574.88;;;19.46;93.19
29909;BME280;36247;51.952;6.146;2023-06-14T06:25:42;101577.09;;;19.86;88.12
29909;BME280;36247;51.952;6.146;2023-06-14T06:28:15;101579.00;;;19.74;86.02
29909;BME280;36247;51.952;6.146;2023-06-14T06:30:41;101582.19;;;20.06;84.82
29909;BME280;36247;51.952;6.146;2023-06-14T06:33:07;101577.25;;;19.69;91.75
29909;BME280;36247;51.952;6.146;2023-06-14T06:35:32;101582.47;;;19.87;90.86
29909;BME280;36247;51.952;6.146;2023-06-14T06:37:59;101585.81;;;20.06;85.75
29909;BME280;36247;51.952;6.146;2023-06-14T06:40:25;101593.94;;;19.99;84.75
29909;BME280;36247;51.952;6.146;2023-06-14T06:42:50;101596.19;;;20.33;79.54
29909;BME280;36247;51.952;6.146;2023-06-14T06:45:18;101599.75;;;20.35;77.95
29909;BME280;36247;51.952;6.146;2023-06-14T06:47:43;101603.16;;;20.46;74.44
29909;BME280;36247;51.952;6.146;2023-06-14T06:50:11;101595.81;;;20.57;74.16
29909;BME280;36247;51.952;6.146;2023-06-14T06:52:36;101604.56;;;20.72;72.79
29909;BME280;36247;51.952;6.146;2023-06-14T06:55:02;101598.38;;;20.65;73.63
29909;BME280;36247;51.952;6.146;2023-06-14T06:57:28;101608.25;;;20.68;68.71
29909;BME280;36247;51.952;6.146;2023-06-14T06:59:57;101611.53;;;20.85;70.11
29909;BME280;36247;51.952;6.146;2023-06-14T07:02:23;101609.97;;;20.72;71.78
29909;BME280;36247;51.952;6.146;2023-06-14T07:04:48;101614.03;;;20.98;68.52
29909;BME280;36247;51.952;6.146;2023-06-14T07:07:15;101619.78;;;21.29;68.96
29909;BME280;36247;51.952;6.146;2023-06-14T07:09:41;101617.16;;;21.23;66.15
29909;BME280;36247;51.952;6.146;2023-06-14T07:12:07;101620.50;;;21.37;64.73
29909;BME280;36247;51.952;6.146;2023-06-14T07:14:36;101628.13;;;21.13;65.56
29909;BME280;36247;51.952;6.146;2023-06-14T07:17:01;101625.81;;;21.42;67.34
29909;BME280;36247;51.952;6.146;2023-06-14T07:19:27;101627.41;;;21.54;65.03
29909;BME280;36247;51.952;6.146;2023-06-14T07:21:53;101631.78;;;21.61;63.16
29909;BME280;36247;51.952;6.146;2023-06-14T07:24:19;101621.75;;;21.69;62.75
29909;BME280;36247;51.952;6.146;2023-06-14T07:26:46;101631.19;;;21.90;62.23
29909;BME280;36247;51.952;6.146;2023-06-14T07:29:14;101617.94;;;21.78;64.46
29909;BME280;36247;51.952;6.146;2023-06-14T07:31:41;101638.28;;;21.94;64.46
29909;BME280;36247;51.952;6.146;2023-06-14T07:34:07;101636.41;;;21.99;58.50
29909;BME280;36247;51.952;6.146;2023-06-14T07:36:32;101630.88;;;22.06;59.04
29909;BME280;36247;51.952;6.146;2023-06-14T07:38:58;101628.53;;;22.31;65.48
29909;BME280;36247;51.952;6.146;2023-06-14T07:41:23;101629.88;;;22.52;58.28
29909;BME280;36247;51.952;6.146;2023-06-14T07:43:49;101630.84;;;22.48;60.38
29909;BME280;36247;51.952;6.146;2023-06-14T07:46:15;101630.00;;;22.46;57.73
29909;BME280;36247;51.952;6.146;2023-06-14T07:48:40;101627.72;;;22.66;61.59
29909;BME280;36247;51.952;6.146;2023-06-14T07:51:06;101637.13;;;22.50;59.35
29909;BME280;36247;51.952;6.146;2023-06-14T07:53:32;101628.28;;;22.42;55.63
29909;BME280;36247;51.952;6.146;2023-06-14T07:55:58;101637.84;;;22.94;57.75
29909;BME280;36247;51.952;6.146;2023-06-14T07:58:23;101644.50;;;22.79;58.20
29909;BME280;36247;51.952;6.146;2023-06-14T08:00:49;101641.66;;;22.85;60.64
29909;BME280;36247;51.952;6.146;2023-06-14T08:03:15;101641.63;;;22.87;55.52
29909;BME280;36247;51.952;6.146;2023-06-14T08:05:41;101639.97;;;22.81;54.60
29909;BME280;36247;51.952;6.146;2023-06-14T08:08:07;101643.78;;;23.10;53.97
29909;BME280;36247;51.952;6.146;2023-06-14T08:10:32;101644.38;;;23.23;53.61
29909;BME280;36247;51.952;6.146;2023-06-14T08:12:58;101636.78;;;23.36;54.97
29909;BME280;36247;51.952;6.146;2023-06-14T08:15:23;101644.13;;;23.65;57.81
29909;BME280;36247;51.952;6.146;2023-06-14T08:17:49;101633.22;;;23.68;56.52
29909;BME280;36247;51.952;6.146;2023-06-14T08:20:15;101634.47;;;23.55;56.91
29909;BME280;36247;51.952;6.146;2023-06-14T08:22:42;101631.88;;;23.83;58.53
29909;BME280;36247;51.952;6.146;2023-06-14T08:25:15;101635.66;;;23.77;56.34
29909;BME280;36247;51.952;6.146;2023-06-14T08:27:41;101640.78;;;23.55;58.14
29909;BME280;36247;51.952;6.146;2023-06-14T08:30:07;101629.38;;;24.08;54.25
29909;BME280;36247;51.952;6.146;2023-06-14T08:32:36;101631.81;;;23.53;53.56
29909;BME280;36247;51.952;6.146;2023-06-14T08:35:01;101632.09;;;24.08;53.44
29909;BME280;36247;51.952;6.146;2023-06-14T08:37:27;101635.28;;;23.91;50.83
29909;BME280;36247;51.952;6.146;2023-06-14T08:39:54;101624.84;;;24.09;49.39
29909;BME280;36247;51.952;6.146;2023-06-14T08:42:22;101627.97;;;24.25;50.90
29909;BME280;36247;51.952;6.146;2023-06-14T08:44:49;101628.66;;;24.32;50.40
29909;BME280;36247;51.952;6.146;2023-06-14T08:47:15;101626.69;;;24.37;52.77
29909;BME280;36247;51.952;6.146;2023-06-14T08:49:46;101629.59;;;24.31;53.79
29909;BME280;36247;51.952;6.146;2023-06-14T08:52:13;101631.47;;;24.57;52.16
29909;BME280;36247;51.952;6.146;2023-06-14T08:54:41;101620.47;;;24.63;49.42
29909;BME280;36247;51.952;6.146;2023-06-14T08:57:11;101623.28;;;24.60;47.54
29909;BME280;36247;51.952;6.146;2023-06-14T08:59:46;101621.63;;;24.26;50.12
29909;BME280;36247;51.952;6.146;2023-06-14T09:02:15;101627.06;;;24.54;49.02
29909;BME280;36247;51.952;6.146;2023-06-14T09:04:43;101630.94;;;24.75;48.11
29909;BME280;36247;51.952;6.146;2023-06-14T09:07:12;101621.72;;;24.51;48.06
29909;BME280;36247;51.952;6.146;2023-06-14T09:09:41;101632.47;;;24.82;48.36
29909;BME280;36247;51.952;6.146;2023-06-14T09:12:13;101623.63;;;25.04;48.12
29909;BME280;36247;51.952;6.146;2023-06-14T09:14:41;101630.41;;;24.91;47.33
29909;BME280;36247;51.952;6.146;2023-06-14T09:17:08;101623.81;;;25.25;50.76
29909;BME280;36247;51.952;6.146;2023-06-14T09:19:41;101622.00;;;25.25;50.31
29909;BME280;36247;51.952;6.146;2023-06-14T09:22:07;101622.75;;;25.30;51.39
29909;BME280;36247;51.952;6.146;2023-06-14T09:24:37;101625.03;;;25.68;50.74
29909;BME280;36247;51.952;6.146;2023-06-14T09:27:03;101624.84;;;25.73;46.62
29909;BME280;36247;51.952;6.146;2023-06-14T09:29:28;101633.00;;;25.47;47.57
29909;BME280;36247;51.952;6.146;2023-06-14T09:31:55;101632.94;;;25.22;50.28
29909;BME280;36247;51.952;6.146;2023-06-14T09:34:21;101630.94;;;25.02;51.93
29909;BME280;36247;51.952;6.146;2023-06-14T09:36:48;101639.84;;;25.32;49.56
29909;BME280;36247;51.952;6.146;2023-06-14T09:39:17;101638.72;;;25.88;48.89
29909;BME280;36247;51.952;6.146;2023-06-14T09:41:43;101645.41;;;25.28;47.90
29909;BME280;36247;51.952;6.146;2023-06-14T09:44:10;101645.81;;;25.67;48.97
29909;BME280;36247;51.952;6.146;2023-06-14T09:46:37;101644.34;;;26.31;45.15
29909;BME280;36247;51.952;6.146;2023-06-14T09:49:08;101642.09;;;25.95;46.94
29909;BME280;36247;51.952;6.146;2023-06-14T09:51:42;101626.06;;;26.58;47.63
29909;BME280;36247;51.952;6.146;2023-06-14T09:54:15;101641.81;;;26.03;46.18
29909;BME280;36247;51.952;6.146;2023-06-14T09:56:45;101647.56;;;26.19;45.04
29909;BME280;36247;51.952;6.146;2023-06-14T09:59:13;101639.53;;;26.16;44.40
29909;BME280;36247;51.952;6.146;2023-06-14T10:01:43;101649.56;;;25.65;46.95
29909;BME280;36247;51.952;6.146;2023-06-14T10:04:11;101649.91;;;25.79;42.22
29909;BME280;36247;51.952;6.146;2023-06-14T10:06:43;101640.72;;;26.09;41.57
29909;BME280;36247;51.952;6.146;2023-06-14T10:09:11;101644.91;;;26.17;41.56
29909;BME280;36247;51.952;6.146;2023-06-14T10:11:38;101644.22;;;27.23;41.72
29909;BME280;36247;51.952;6.146;2023-06-14T10:14:11;101639.56;;;26.60;42.07
29909;BME280;36247;51.952;6.146;2023-06-14T10:22:19;101628.50;;;27.09;41.01
29909;BME280;36247;51.952;6.146;2023-06-14T10:24:50;101636.09;;;26.80;40.04
29909;BME280;36247;51.952;6.146;2023-06-14T10:27:16;101634.16;;;27.87;40.12
29909;BME280;36247;51.952;6.146;2023-06-14T10:32:23;101626.94;;;28.06;40.23
29909;BME280;36247;51.952;6.146;2023-06-14T10:35:00;101628.94;;;27.82;39.79
29909;BME280;36247;51.952;6.146;2023-06-14T10:37:27;101631.06;;;27.94;40.73
29909;BME280;36247;51.952;6.146;2023-06-14T10:39:53;101620.56;;;27.66;40.09
29909;BME280;36247;51.952;6.146;2023-06-14T10:42:19;101627.41;;;27.95;40.68
29909;BME280;36247;51.952;6.146;2023-06-14T10:44:55;101628.56;;;28.29;37.52
29909;BME280;36247;51.952;6.146;2023-06-14T10:47:31;101631.50;;;27.85;36.36
29909;BME280;36247;51.952;6.146;2023-06-14T10:52:31;101638.81;;;27.85;39.72
29909;BME280;36247;51.952;6.146;2023-06-14T10:55:10;101633.00;;;28.13;38.80
29909;BME280;36247;51.952;6.146;2023-06-14T10:57:45;101624.22;;;28.63;38.54
29909;BME280;36247;51.952;6.146;2023-06-14T11:00:13;101635.91;;;28.46;38.99
29909;BME280;36247;51.952;6.146;2023-06-14T11:03:16;101627.97;;;28.42;39.04
29909;BME280;36247;51.952;6.146;2023-06-14T11:05:50;101633.59;;;28.75;37.96
29909;BME280;36247;51.952;6.146;2023-06-14T11:11:00;101624.78;;;29.59;38.55
29909;BME280;36247;51.952;6.146;2023-06-14T11:13:30;101634.50;;;28.76;38.14
29909;BME280;36247;51.952;6.146;2023-06-14T11:15:56;101631.94;;;28.73;35.56
29909;BME280;36247;51.952;6.146;2023-06-14T11:18:23;101636.13;;;28.42;36.49
29909;BME280;36247;51.952;6.146;2023-06-14T11:20:55;101630.22;;;29.07;37.62
29909;BME280;36247;51.952;6.146;2023-06-14T11:23:21;101635.50;;;28.92;38.57
29909;BME280;36247;51.952;6.146;2023-06-14T11:25:50;101624.78;;;29.07;37.51
29909;BME280;36247;51.952;6.146;2023-06-14T11:28:16;101623.91;;;28.31;40.13
29909;BME280;36247;51.952;6.146;2023-06-14T11:30:42;101629.66;;;29.52;38.66
29909;BME280;36247;51.952;6.146;2023-06-14T11:33:16;101625.97;;;29.01;37.79
29909;BME280;36247;51.952;6.146;2023-06-14T11:35:42;101620.72;;;29.84;35.67
29909;BME280;36247;51.952;6.146;2023-06-14T11:38:16;101621.13;;;29.76;35.51
29909;BME280;36247;51.952;6.146;2023-06-14T11:40:42;101622.84;;;29.61;37.05
29909;BME280;36247;51.952;6.146;2023-06-14T11:43:07;101618.03;;;29.49;39.44
29909;BME280;36247;51.952;6.146;2023-06-14T11:45:36;101617.56;;;29.92;38.69
29909;BME280;36247;51.952;6.146;2023-06-14T11:48:02;101623.66;;;29.46;35.96
29909;BME280;36247;51.952;6.146;2023-06-14T11:50:27;101629.84;;;29.49;34.81
29909;BME280;36247;51.952;6.146;2023-06-14T11:52:57;101630.94;;;30.30;36.67
29909;BME280;36247;51.952;6.146;2023-06-14T11:55:25;101629.63;;;29.36;35.29
29909;BME280;36247;51.952;6.146;2023-06-14T11:57:53;101614.97;;;30.38;36.61
29909;BME280;36247;51.952;6.146;2023-06-14T12:00:19;101631.38;;;29.37;36.79
29909;BME280;36247;51.952;6.146;2023-06-14T12:02:53;101625.50;;;30.46;35.81
29909;BME280;36247;51.952;6.146;2023-06-14T12:05:21;101618.06;;;29.82;38.01
29909;BME280;36247;51.952;6.146;2023-06-14T12:07:47;101623.53;;;29.65;38.74
29909;BME280;36247;51.952;6.146;2023-06-14T12:10:13;101621.53;;;29.86;38.73
29909;BME280;36247;51.952;6.146;2023-06-14T12:12:42;101625.88;;;31.02;36.90
29909;BME280;36247;51.952;6.146;2023-06-14T12:15:11;101622.38;;;30.68;33.53
29909;BME280;36247;51.952;6.146;2023-06-14T12:17:37;101629.66;;;30.03;36.19
29909;BME280;36247;51.952;6.146;2023-06-14T12:20:12;101630.34;;;30.56;34.07
29909;BME280;36247;51.952;6.146;2023-06-14T12:22:51;101633.22;;;29.37;34.13
29909;BME280;36247;51.952;6.146;2023-06-14T12:25:35;101629.66;;;29.87;34.75
29909;BME280;36247;51.952;6.146;2023-06-14T12:28:06;101627.97;;;31.12;35.53
29909;BME280;36247;51.952;6.146;2023-06-14T12:30:33;101624.34;;;30.96;33.10
29909;BME280;36247;51.952;6.146;2023-06-14T12:33:01;101628.09;;;30.95;33.83
29909;BME280;36247;51.952;6.146;2023-06-14T12:35:26;101619.03;;;30.79;35.11
29909;BME280;36247;51.952;6.146;2023-06-14T12:37:52;101618.97;;;30.64;35.02
29909;BME280;36247;51.952;6.146;2023-06-14T12:40:17;101611.41;;;30.84;35.27
29909;BME280;36247;51.952;6.146;2023-06-14T12:42:44;101613.78;;;31.06;36.19
29909;BME280;36247;51.952;6.146;2023-06-14T12:45:12;101618.59;;;30.70;34.13
29909;BME280;36247;51.952;6.146;2023-06-14T12:47:37;101620.88;;;30.14;33.88
29909;BME280;36247;51.952;6.146;2023-06-14T12:50:07;101624.88;;;29.58;33.65
29909;BME280;36247;51.952;6.146;2023-06-14T12:52:33;101616.56;;;30.74;34.50
29909;BME280;36247;51.952;6.146;2023-06-14T12:55:04;101621.88;;;31.38;33.50
29909;BME280;36247;51.952;6.146;2023-06-14T12:57:29;101628.09;;;30.15;32.04
29909;BME280;36247;51.952;6.146;2023-06-14T12:59:55;101624.78;;;30.58;33.48
29909;BME280;36247;51.952;6.146;2023-06-14T13:02:21;101626.56;;;30.59;34.53
29909;BME280;36247;51.952;6.146;2023-06-14T13:04:50;101626.31;;;30.94;33.27
29909;BME280;36247;51.952;6.146;2023-06-14T13:07:17;101630.81;;;30.49;34.99